Time;durP1;ratioP1;P1;durP2;ratioP2;P2;SDS_P1;SDS_P2;PMS_P1;PMS_P2;Temp;Humidity;BMP_temperature;BMP_pressure;BME280_temperature;BME280_humidity;BME280_pressure;Samples;Min_cycle;Max_cycle;Signal;HPM_P1;HPM_P2
2022/04/28 00:01:22;;;;;;;;;;;;;;;;;;5069430;28;20256;-47
2022/04/28 00:03:49;;;;;;;;;;;;;;;;;;5052244;28;19999;-52
2022/04/28 00:06:15;;;;;;;;;;;;;;;;;;5051721;28;19920;-53
2022/04/28 00:08:42;;;;;;;;;;;;;;;;;;5071246;28;19913;-53
2022/04/28 00:11:11;;;;;;;;;;;;;;;;;;5070950;28;19909;-53
2022/04/28 00:13:38;;;;;;;;;;;;;;;;;;5052225;28;19909;-48
2022/04/28 00:16:04;;;;;;;;;;;;;;;;;;5052203;28;19917;-50
2022/04/28 00:29:42;;;;;;;;;;;;;;;;;;5032020;28;19916;-54
2022/04/28 00:32:08;;;;;;;;;;;;;;;;;;5032213;28;19909;-50
2022/04/28 00:34:35;;;;;;;;;;;;;;;;;;5071635;28;19995;-54
2022/04/28 00:37:01;;;;;;;;;;;;;;;;;;5071358;28;19954;-55
2022/04/28 00:39:28;;;;;;;;;;;;;;;;;;5071604;28;19908;-48
2022/04/28 00:41:54;;;;;;;;;;;;;;;;;;5071651;28;19919;-59
2022/04/28 00:44:21;;;;;;;;;;;;;;;;;;5071103;28;19962;-55
2022/04/28 00:46:47;;;;;;;;;;;;;;;;;;5071330;28;19963;-53
2022/04/28 00:51:59;;;;;;;;;;;;;;;;;;5071486;28;19990;-53
2022/04/28 00:54:25;;;;;;;;;;;;;;;;;;5070835;28;19909;-51
2022/04/28 00:56:52;;;;;;;;;;;;;;;;;;5071210;28;19915;-53
2022/04/28 00:59:18;;;;;;;;;;;;;;;;;;5071057;28;19908;-54
2022/04/28 01:01:45;;;;;;;;;;;;;;;;;;5071400;28;19947;-53
2022/04/28 01:04:11;;;;;;;;;;;;;;;;;;5070972;28;19908;-49
2022/04/28 01:06:38;;;;;;;;;;;;;;;;;;5074999;28;20221;-50
2022/04/28 01:09:04;;;;;;;;;;;;;;;;;;5074505;28;19919;-50
2022/04/28 01:11:31;;;;;;;;;;;;;;;;;;5074521;28;19924;-52
2022/04/28 01:13:58;;;;;;;;;;;;;;;;;;5075218;28;20386;-53
2022/04/28 01:16:24;;;;;;;;;;;;;;;;;;5075129;28;19922;-54
2022/04/28 01:18:51;;;;;;;;;;;;;;;;;;5074412;28;20038;-49
2022/04/28 01:21:17;;;;;;;;;;;;;;;;;;5074614;28;19908;-55
2022/04/28 01:23:44;;;;;;;;;;;;;;;;;;5074344;28;20001;-50
2022/04/28 01:26:11;;;;;;;;;;;;;;;;;;5074109;28;20383;-54
2022/04/28 01:28:37;;;;;;;;;;;;;;;;;;5074776;28;19909;-55
2022/04/28 01:31:07;;;;;;;;;;;;;;;;;;5074545;28;19908;-52
2022/04/28 01:33:33;;;;;;;;;;;;;;;;;;5074889;28;20231;-58
2022/04/28 01:36:00;;;;;;;;;;;;;;;;;;5074705;28;19916;-52
2022/04/28 01:38:26;;;;;;;;;;;;;;;;;;5074625;28;20312;-48
2022/04/28 01:40:52;;;;;;;;;;;;;;;;;;5074511;28;19999;-51
2022/04/28 01:43:19;;;;;;;;;;;;;;;;;;5063013;28;19909;-52
2022/04/28 01:45:45;;;;;;;;;;;;;;;;;;5054551;28;19916;-48
2022/04/28 01:48:12;;;;;;;;;;;;;;;;;;5053658;28;19916;-43
2022/04/28 01:50:38;;;;;;;;;;;;;;;;;;5054250;28;19916;-52
2022/04/28 01:55:50;;;;;;;;;;;;;;;;;;5054197;28;19936;-53
2022/04/28 01:58:16;;;;;;;;;;;;;;;;;;5059583;28;20402;-56
2022/04/28 02:00:43;;;;;;;;;;;;;;;;;;5074192;28;20341;-55
2022/04/28 02:03:09;;;;;;;;;;;;;;;;;;5074584;28;20254;-54
2022/04/28 02:05:36;;;;;;;;;;;;;;;;;;5074376;28;19928;-54
2022/04/28 02:08:02;;;;;;;;;;;;;;;;;;5074198;28;19923;-50
2022/04/28 02:10:29;;;;;;;;;;;;;;;;;;5073804;28;19908;-49
2022/04/28 02:12:55;;;;;;;;;;;;;;;;;;5072197;28;19908;-54
2022/04/28 02:15:22;;;;;;;;;;;;;;;;;;5073627;28;20413;-52
2022/04/28 02:17:48;;;;;;;;;;;;;;;;;;5074447;28;19934;-55
2022/04/28 02:20:15;;;;;;;;;;;;;;;;;;5074045;28;19919;-53
2022/04/28 02:22:41;;;;;;;;;;;;;;;;;;5074438;28;19915;-51
2022/04/28 02:25:08;;;;;;;;;;;;;;;;;;5073563;28;19914;-49
2022/04/28 02:27:34;;;;;;;;;;;;;;;;;;5074315;28;20019;-52
2022/04/28 02:30:01;;;;;;;;;;;;;;;;;;5074003;28;19909;-52
2022/04/28 02:33:08;;;;;;;;;;;;;;;;;;5073989;28;19908;-53
2022/04/28 02:35:13;;;;;;;;;;;;;;;;;;5061625;28;20008;-51
2022/04/28 02:37:40;;;;;;;;;;;;;;;;;;5054044;28;19920;-50
2022/04/28 02:40:06;;;;;;;;;;;;;;;;;;5054200;28;19920;-52
2022/04/28 02:42:33;;;;;;;;;;;;;;;;;;5065188;28;19909;-47
2022/04/28 02:44:59;;;;;;;;;;;;;;;;;;5053594;28;19909;-52
2022/04/28 02:47:26;;;;;;;;;;;;;;;;;;5053940;28;20008;-55
2022/04/28 02:49:52;;;;;;;;;;;;;;;;;;5053960;28;19916;-55
2022/04/28 02:52:19;;;;;;;;;;;;;;;;;;5054235;28;20363;-54
2022/04/28 02:54:45;;;;;;;;;;;;;;;;;;5053837;28;19909;-53
2022/04/28 02:57:12;;;;;;;;;;;;;;;;;;5053854;28;19909;-55
2022/04/28 02:59:38;;;;;;;;;;;;;;;;;;5054594;28;19996;-52
2022/04/28 03:02:05;;;;;;;;;;;;;;;;;;5055269;28;20439;-52
2022/04/28 03:04:31;;;;;;;;;;;;;;;;;;5054524;28;20359;-51
2022/04/28 03:12:27;;;;;;;;;;;;;;;;;;5053497;28;20367;-52
2022/04/28 03:14:53;;;;;;;;;;;;;;;;;;5053210;28;20287;-51
2022/04/28 03:17:20;;;;;;;;;;;;;;;;;;5060828;28;19909;-50
2022/04/28 03:19:46;;;;;;;;;;;;;;;;;;5072590;28;19908;-54
2022/04/28 03:22:13;;;;;;;;;;;;;;;;;;5073158;28;19983;-55
2022/04/28 03:24:40;;;;;;;;;;;;;;;;;;5072931;28;19939;-54
2022/04/28 03:27:06;;;;;;;;;;;;;;;;;;5071880;28;20331;-55
2022/04/28 03:29:32;;;;;;;;;;;;;;;;;;5072146;28;19959;-53
2022/04/28 03:31:59;;;;;;;;;;;;;;;;;;5072506;28;20324;-56
2022/04/28 03:34:25;;;;;;;;;;;;;;;;;;5073151;28;19908;-49
2022/04/28 03:36:52;;;;;;;;;;;;;;;;;;5072769;28;19908;-57
2022/04/28 03:39:19;;;;;;;;;;;;;;;;;;5072689;28;19991;-57
2022/04/28 03:41:45;;;;;;;;;;;;;;;;;;5071852;28;20006;-52
2022/04/28 03:44:12;;;;;;;;;;;;;;;;;;5072337;28;19916;-56
2022/04/28 03:46:38;;;;;;;;;;;;;;;;;;5072256;28;20019;-52
2022/04/28 03:49:05;;;;;;;;;;;;;;;;;;5072047;28;20427;-50
2022/04/28 03:51:31;;;;;;;;;;;;;;;;;;5072760;28;19912;-55
2022/04/28 03:54:00;;;;;;;;;;;;;;;;;;5071838;28;19912;-52
2022/04/28 03:56:26;;;;;;;;;;;;;;;;;;5072953;28;20286;-55
2022/04/28 03:58:53;;;;;;;;;;;;;;;;;;5072018;28;19909;-55
2022/04/28 04:01:19;;;;;;;;;;;;;;;;;;5072089;28;19909;-55
2022/04/28 04:03:46;;;;;;;;;;;;;;;;;;5072000;28;19949;-54
2022/04/28 04:06:12;;;;;;;;;;;;;;;;;;5072108;28;19921;-57
2022/04/28 04:08:39;;;;;;;;;;;;;;;;;;5072468;28;19912;-51
2022/04/28 04:11:05;;;;;;;;;;;;;;;;;;5071721;28;19908;-51
2022/04/28 04:13:31;;;;;;;;;;;;;;;;;;5071028;28;19925;-54
2022/04/28 04:15:59;;;;;;;;;;;;;;;;;;5070689;28;20385;-55
2022/04/28 04:18:26;;;;;;;;;;;;;;;;;;5072124;28;19908;-54
2022/04/28 04:20:52;;;;;;;;;;;;;;;;;;5071895;28;19915;-45
2022/04/28 04:23:19;;;;;;;;;;;;;;;;;;5066309;28;20347;-46
2022/04/28 04:25:45;;;;;;;;;;;;;;;;;;5051054;28;19909;-52
2022/04/28 04:28:11;;;;;;;;;;;;;;;;;;5051831;28;19925;-51
2022/04/28 04:33:23;;;;;;;;;;;;;;;;;;5051015;28;20205;-51
2022/04/28 04:35:49;;;;;;;;;;;;;;;;;;5051360;28;20312;-50
2022/04/28 04:38:16;;;;;;;;;;;;;;;;;;5065555;28;20294;-49
2022/04/28 04:40:42;;;;;;;;;;;;;;;;;;5076079;28;19915;-51
2022/04/28 04:43:13;;;;;;;;;;;;;;;;;;5075571;28;20026;-48
2022/04/28 04:45:42;;;;;;;;;;;;;;;;;;5075768;28;20283;-44
2022/04/28 04:48:08;;;;;;;;;;;;;;;;;;5073491;28;19923;-50
2022/04/28 04:50:35;;;;;;;;;;;;;;;;;;5074910;28;19909;-52
2022/04/28 04:53:01;;;;;;;;;;;;;;;;;;5075127;28;20259;-53
2022/04/28 04:55:28;;;;;;;;;;;;;;;;;;5075411;28;19913;-53
2022/04/28 04:57:54;;;;;;;;;;;;;;;;;;5076272;28;19923;-56
2022/04/28 05:00:20;;;;;;;;;;;;;;;;;;5076410;28;20008;-54
2022/04/28 05:02:47;;;;;;;;;;;;;;;;;;5076387;28;19908;-57
2022/04/28 05:05:14;;;;;;;;;;;;;;;;;;5075768;28;20306;-53
2022/04/28 05:07:41;;;;;;;;;;;;;;;;;;5075343;28;19927;-52
2022/04/28 05:10:07;;;;;;;;;;;;;;;;;;5055578;28;19908;-53
2022/04/28 05:12:34;;;;;;;;;;;;;;;;;;5055859;28;20364;-52
2022/04/28 05:15:00;;;;;;;;;;;;;;;;;;5055613;28;19955;-56
2022/04/28 05:17:27;;;;;;;;;;;;;;;;;;5055783;28;20279;-53
2022/04/28 05:19:57;;;;;;;;;;;;;;;;;;5055826;28;20390;-55
2022/04/28 05:22:24;;;;;;;;;;;;;;;;;;5059167;28;19959;-52
2022/04/28 05:24:50;;;;;;;;;;;;;;;;;;5075861;28;19915;-57
2022/04/28 05:27:17;;;;;;;;;;;;;;;;;;5075728;28;19969;-51
2022/04/28 05:29:43;;;;;;;;;;;;;;;;;;5074811;28;19915;-49
2022/04/28 05:32:10;;;;;;;;;;;;;;;;;;5075471;28;20315;-54
2022/04/28 05:34:36;;;;;;;;;;;;;;;;;;5075278;28;20224;-50
2022/04/28 05:37:03;;;;;;;;;;;;;;;;;;5074263;28;19955;-50
2022/04/28 05:39:29;;;;;;;;;;;;;;;;;;5074562;28;19908;-50
2022/04/28 05:41:56;;;;;;;;;;;;;;;;;;5073429;28;20367;-55
2022/04/28 05:47:07;;;;;;;;;;;;;;;;;;5074565;28;19958;-51
2022/04/28 05:49:33;;;;;;;;;;;;;;;;;;5073864;28;19950;-48
2022/04/28 05:52:00;;;;;;;;;;;;;;;;;;5061158;28;19909;-52
2022/04/28 05:54:27;;;;;;;;;;;;;;;;;;5054599;28;20263;-56
2022/04/28 05:56:53;;;;;;;;;;;;;;;;;;5053963;28;20224;-49
2022/04/28 05:59:20;;;;;;;;;;;;;;;;;;5053187;28;19908;-56
2022/04/28 06:01:46;;;;;;;;;;;;;;;;;;5053672;28;19904;-56
2022/04/28 06:04:13;;;;;;;;;;;;;;;;;;5054829;28;19935;-54
2022/04/28 06:06:39;;;;;;;;;;;;;;;;;;5053747;28;19928;-46
2022/04/28 06:09:06;;;;;;;;;;;;;;;;;;5053646;28;19909;-45
2022/04/28 06:11:32;;;;;;;;;;;;;;;;;;5070928;28;19919;-46
2022/04/28 06:13:59;;;;;;;;;;;;;;;;;;5073831;28;20271;-50
2022/04/28 06:16:25;;;;;;;;;;;;;;;;;;5073949;28;19995;-52
2022/04/28 06:18:51;;;;;;;;;;;;;;;;;;5074092;28;19935;-47
2022/04/28 06:21:18;;;;;;;;;;;;;;;;;;5073471;28;19909;-54
2022/04/28 06:23:45;;;;;;;;;;;;;;;;;;5074098;28;19935;-47
2022/04/28 06:26:12;;;;;;;;;;;;;;;;;;5074043;28;19908;-53
2022/04/28 06:28:38;;;;;;;;;;;;;;;;;;5073629;28;20011;-54
2022/04/28 06:31:06;;;;;;;;;;;;;;;;;;5072846;28;19913;-54
2022/04/28 06:33:33;;;;;;;;;;;;;;;;;;5072395;28;19915;-55
2022/04/28 06:35:59;;;;;;;;;;;;;;;;;;5058438;28;19913;-54
2022/04/28 06:38:26;;;;;;;;;;;;;;;;;;5032572;28;19913;-43
2022/04/28 06:40:52;;;;;;;;;;;;;;;;;;5048234;28;20052;-55
2022/04/28 06:43:18;;;;;;;;;;;;;;;;;;5072155;28;19908;-57
2022/04/28 06:48:30;;;;;;;;;;;;;;;;;;5073533;28;19978;-46
2022/04/28 06:50:56;;;;;;;;;;;;;;;;;;5073075;28;19973;-50
2022/04/28 06:53:22;;;;;;;;;;;;;;;;;;5073310;28;19995;-54
2022/04/28 06:55:49;;;;;;;;;;;;;;;;;;5073499;28;20274;-54
2022/04/28 06:58:15;;;;;;;;;;;;;;;;;;5073243;28;20316;-43
2022/04/28 07:00:43;;;;;;;;;;;;;;;;;;5073112;28;19931;-47
2022/04/28 07:03:10;;;;;;;;;;;;;;;;;;5073303;28;19908;-53
2022/04/28 07:05:39;;;;;;;;;;;;;;;;;;5072575;28;19927;-45
2022/04/28 07:08:05;;;;;;;;;;;;;;;;;;5058836;28;20352;-55
2022/04/28 07:10:32;;;;;;;;;;;;;;;;;;5053232;28;20302;-55
2022/04/28 07:12:58;;;;;;;;;;;;;;;;;;5053338;28;19909;-53
2022/04/28 07:15:25;;;;;;;;;;;;;;;;;;5052504;28;19965;-49
2022/04/28 07:17:51;;;;;;;;;;;;;;;;;;5052147;28;19909;-49
2022/04/28 07:20:17;;;;;;;;;;;;;;;;;;5051487;28;19913;-58
2022/04/28 07:22:44;;;;;;;;;;;;;;;;;;5052854;28;19909;-52
2022/04/28 07:25:10;;;;;;;;;;;;;;;;;;5052436;28;20287;-52
2022/04/28 07:27:37;;;;;;;;;;;;;;;;;;5065083;28;19938;-51
2022/04/28 07:30:03;;;;;;;;;;;;;;;;;;5073113;28;19908;-49
2022/04/28 07:32:30;;;;;;;;;;;;;;;;;;5072302;28;20008;-41
2022/04/28 07:34:56;;;;;;;;;;;;;;;;;;5072219;28;19970;-45
2022/04/28 07:37:23;;;;;;;;;;;;;;;;;;5072227;28;20340;-48
2022/04/28 07:39:49;;;;;;;;;;;;;;;;;;5072987;28;19995;-44
2022/04/28 07:42:16;;;;;;;;;;;;;;;;;;5061249;28;20343;-50
2022/04/28 07:44:42;;;;;;;;;;;;;;;;;;5052415;28;19916;-52
2022/04/28 07:47:09;;;;;;;;;;;;;;;;;;5052348;28;19923;-50
2022/04/28 07:49:36;;;;;;;;;;;;;;;;;;5050364;28;19963;-49
2022/04/28 07:52:03;;;;;;;;;;;;;;;;;;5052415;28;19924;-48
2022/04/28 07:54:29;;;;;;;;;;;;;;;;;;5052762;28;19931;-53
2022/04/28 07:56:55;;;;;;;;;;;;;;;;;;5070546;28;19909;-54
2022/04/28 07:59:22;;;;;;;;;;;;;;;;;;5072281;28;20394;-53
2022/04/28 08:01:48;;;;;;;;;;;;;;;;;;5071766;28;20359;-53
2022/04/28 08:04:15;;;;;;;;;;;;;;;;;;5071803;28;20023;-53
2022/04/28 08:06:41;;;;;;;;;;;;;;;;;;5071602;28;19928;-57
2022/04/28 08:09:08;;;;;;;;;;;;;;;;;;5071478;28;19954;-55
2022/04/28 08:11:34;;;;;;;;;;;;;;;;;;5071535;28;20397;-54
2022/04/28 08:14:01;;;;;;;;;;;;;;;;;;5070282;28;19992;-45
2022/04/28 08:16:27;;;;;;;;;;;;;;;;;;5072408;28;19954;-54
2022/04/28 08:18:54;;;;;;;;;;;;;;;;;;5072167;28;19927;-55
2022/04/28 08:21:21;;;;;;;;;;;;;;;;;;5072468;28;20323;-52
2022/04/28 08:23:48;;;;;;;;;;;;;;;;;;5070556;28;20355;-53
2022/04/28 08:26:14;;;;;;;;;;;;;;;;;;5072432;28;20286;-56
2022/04/28 08:28:41;;;;;;;;;;;;;;;;;;5071304;28;19920;-54
2022/04/28 08:31:07;;;;;;;;;;;;;;;;;;5071698;28;19912;-55
2022/04/28 08:33:34;;;;;;;;;;;;;;;;;;5071651;28;19909;-44
2022/04/28 08:36:00;;;;;;;;;;;;;;;;;;5072485;28;20033;-54
2022/04/28 08:38:27;;;;;;;;;;;;;;;;;;5072007;28;19908;-53
2022/04/28 08:40:54;;;;;;;;;;;;;;;;;;5071241;28;19915;-53
2022/04/28 08:43:20;;;;;;;;;;;;;;;;;;5071253;28;19908;-53
2022/04/28 08:48:33;;;;;;;;;;;;;;;;;;5050492;28;19938;-53
2022/04/28 08:50:59;;;;;;;;;;;;;;;;;;5072118;28;20347;-52
2022/04/28 08:53:26;;;;;;;;;;;;;;;;;;5071405;28;19908;-57
2022/04/28 08:55:57;;;;;;;;;;;;;;;;;;5070097;28;19974;-54
2022/04/28 08:58:23;;;;;;;;;;;;;;;;;;5071952;28;19908;-49
2022/04/28 09:00:50;;;;;;;;;;;;;;;;;;5071962;28;20003;-51
2022/04/28 09:03:16;;;;;;;;;;;;;;;;;;5071366;28;19958;-54
2022/04/28 09:05:43;;;;;;;;;;;;;;;;;;5072177;28;19921;-52
2022/04/28 09:08:09;;;;;;;;;;;;;;;;;;5072124;28;20117;-48
2022/04/28 09:10:36;;;;;;;;;;;;;;;;;;5071962;28;19909;-46
2022/04/28 09:15:49;;;;;;;;;;;;;;;;;;5050366;28;19908;-49
2022/04/28 09:18:15;;;;;;;;;;;;;;;;;;5071404;28;20010;-50
2022/04/28 09:20:42;;;;;;;;;;;;;;;;;;5071585;28;19999;-49
2022/04/28 09:23:09;;;;;;;;;;;;;;;;;;5070380;28;20347;-47
2022/04/28 09:25:35;;;;;;;;;;;;;;;;;;5072161;28;19908;-51
2022/04/28 09:28:02;;;;;;;;;;;;;;;;;;5074997;28;19938;-52
2022/04/28 09:30:29;;;;;;;;;;;;;;;;;;5075685;28;19908;-49
2022/04/28 09:32:58;;;;;;;;;;;;;;;;;;5075123;28;19909;-49
2022/04/28 09:35:24;;;;;;;;;;;;;;;;;;5074687;28;19999;-47
2022/04/28 09:37:51;;;;;;;;;;;;;;;;;;5075302;28;19954;-49
2022/04/28 09:43:02;;;;;;;;;;;;;;;;;;5075219;28;19930;-46
2022/04/28 09:45:28;;;;;;;;;;;;;;;;;;5075435;28;20290;-49
2022/04/28 09:47:54;;;;;;;;;;;;;;;;;;5074767;28;20281;-42
2022/04/28 09:50:21;;;;;;;;;;;;;;;;;;5074938;28;19939;-47
2022/04/28 09:52:49;;;;;;;;;;;;;;;;;;5074587;28;19908;-42
2022/04/28 09:55:17;;;;;;;;;;;;;;;;;;5074790;28;20372;-43
2022/04/28 09:57:43;;;;;;;;;;;;;;;;;;5074615;28;20274;-50
2022/04/28 10:00:10;;;;;;;;;;;;;;;;;;5075171;28;19909;-51
2022/04/28 10:02:37;;;;;;;;;;;;;;;;;;5075026;28;19970;-47
2022/04/28 10:05:03;;;;;;;;;;;;;;;;;;5074601;28;19924;-40
2022/04/28 10:07:30;;;;;;;;;;;;;;;;;;5074700;28;19917;-49
2022/04/28 10:09:57;;;;;;;;;;;;;;;;;;5074712;28;20360;-45
2022/04/28 10:12:25;;;;;;;;;;;;;;;;;;5074279;28;19916;-50
2022/04/28 10:14:53;;;;;;;;;;;;;;;;;;5074632;28;19909;-50
2022/04/28 10:17:19;;;;;;;;;;;;;;;;;;5074497;28;19962;-49
2022/04/28 10:19:46;;;;;;;;;;;;;;;;;;5074469;28;19915;-45
2022/04/28 10:22:12;;;;;;;;;;;;;;;;;;5074773;28;19934;-53
2022/04/28 10:32:54;;;;;;;;;;;;;;;;;;5074278;28;19966;-50
2022/04/28 10:35:20;;;;;;;;;;;;;;;;;;5074326;28;19909;-59
2022/04/28 10:37:47;;;;;;;;;;;;;;;;;;5074018;28;19908;-47
2022/04/28 10:40:13;;;;;;;;;;;;;;;;;;5074216;28;20001;-55
2022/04/28 10:42:40;;;;;;;;;;;;;;;;;;5074610;28;19992;-46
2022/04/28 10:45:07;;;;;;;;;;;;;;;;;;5074583;28;20410;-54
2022/04/28 10:47:33;;;;;;;;;;;;;;;;;;5073806;28;19923;-43
2022/04/28 10:50:00;;;;;;;;;;;;;;;;;;5074375;28;19908;-53
2022/04/28 10:52:26;;;;;;;;;;;;;;;;;;5074469;28;20014;-47
2022/04/28 10:54:53;;;;;;;;;;;;;;;;;;5074386;28;19912;-54
2022/04/28 10:57:19;;;;;;;;;;;;;;;;;;5073568;28;19908;-50
2022/04/28 10:59:46;;;;;;;;;;;;;;;;;;5074403;28;19947;-53
2022/04/28 11:02:15;;;;;;;;;;;;;;;;;;5073875;28;19915;-55
2022/04/28 11:04:42;;;;;;;;;;;;;;;;;;5073345;28;19909;-55
2022/04/28 11:07:08;;;;;;;;;;;;;;;;;;5073569;28;19916;-50
2022/04/28 11:09:35;;;;;;;;;;;;;;;;;;5073738;28;19908;-49
2022/04/28 11:12:01;;;;;;;;;;;;;;;;;;5073470;28;19913;-49
2022/04/28 11:14:28;;;;;;;;;;;;;;;;;;5073551;28;19908;-51
2022/04/28 11:16:54;;;;;;;;;;;;;;;;;;5074077;28;20405;-54
2022/04/28 11:19:21;;;;;;;;;;;;;;;;;;5073604;28;20274;-46
2022/04/28 11:21:47;;;;;;;;;;;;;;;;;;5073773;28;20012;-53
2022/04/28 11:24:14;;;;;;;;;;;;;;;;;;5073643;28;19908;-50
2022/04/28 11:26:40;;;;;;;;;;;;;;;;;;5054376;28;19964;-50
2022/04/28 11:29:07;;;;;;;;;;;;;;;;;;5053260;28;19909;-50
2022/04/28 11:31:33;;;;;;;;;;;;;;;;;;5053267;28;19909;-51
2022/04/28 11:34:00;;;;;;;;;;;;;;;;;;5053401;28;19908;-49
2022/04/28 11:36:27;;;;;;;;;;;;;;;;;;5053659;28;19909;-57
2022/04/28 11:38:53;;;;;;;;;;;;;;;;;;5053548;28;20332;-53
2022/04/28 11:41:20;;;;;;;;;;;;;;;;;;5052847;28;19950;-50
2022/04/28 11:43:47;;;;;;;;;;;;;;;;;;5053501;28;19916;-51
2022/04/28 11:46:14;;;;;;;;;;;;;;;;;;5053132;28;19939;-45
2022/04/28 11:48:40;;;;;;;;;;;;;;;;;;5053019;28;19981;-54
2022/04/28 11:51:07;;;;;;;;;;;;;;;;;;5052574;28;19908;-52
2022/04/28 11:53:33;;;;;;;;;;;;;;;;;;5053370;28;19909;-48
2022/04/28 11:56:00;;;;;;;;;;;;;;;;;;5052969;28;19905;-54
2022/04/28 11:58:26;;;;;;;;;;;;;;;;;;5057645;28;20271;-47
2022/04/28 12:00:52;;;;;;;;;;;;;;;;;;5073286;28;20374;-52
2022/04/28 12:03:19;;;;;;;;;;;;;;;;;;5073024;28;19995;-50
2022/04/28 12:05:45;;;;;;;;;;;;;;;;;;5072666;28;19920;-56
2022/04/28 12:08:15;;;;;;;;;;;;;;;;;;5072380;28;20489;-54
2022/04/28 12:16:11;;;;;;;;;;;;;;;;;;5072898;28;19919;-46
2022/04/28 12:21:22;;;;;;;;;;;;;;;;;;5072485;28;19915;-51
2022/04/28 12:23:48;;;;;;;;;;;;;;;;;;5072286;28;20003;-52
2022/04/28 12:26:15;;;;;;;;;;;;;;;;;;5072333;28;19913;-51
2022/04/28 12:28:42;;;;;;;;;;;;;;;;;;5072557;28;19909;-50
2022/04/28 12:31:08;;;;;;;;;;;;;;;;;;5072622;28;19909;-44
2022/04/28 12:33:35;;;;;;;;;;;;;;;;;;5072446;28;19913;-46
2022/04/28 12:36:01;;;;;;;;;;;;;;;;;;5072776;28;19913;-49
2022/04/28 12:38:28;;;;;;;;;;;;;;;;;;5072541;28;19962;-45
2022/04/28 12:40:54;;;;;;;;;;;;;;;;;;5072517;28;19981;-44
2022/04/28 12:43:21;;;;;;;;;;;;;;;;;;5073034;28;19919;-43
2022/04/28 12:45:56;;;;;;;;;;;;;;;;;;5073127;28;19915;-43
2022/04/28 12:48:23;;;;;;;;;;;;;;;;;;5073172;28;19924;-46
2022/04/28 12:50:50;;;;;;;;;;;;;;;;;;5072670;28;19940;-43
2022/04/28 12:53:17;;;;;;;;;;;;;;;;;;5072144;28;19916;-49
2022/04/28 12:55:43;;;;;;;;;;;;;;;;;;5072538;28;20007;-47
2022/04/28 12:58:10;;;;;;;;;;;;;;;;;;5072456;28;19909;-51
2022/04/28 13:00:38;;;;;;;;;;;;;;;;;;5074692;28;19908;-46
2022/04/28 13:03:07;;;;;;;;;;;;;;;;;;5076111;28;19912;-54
2022/04/28 13:05:33;;;;;;;;;;;;;;;;;;5076097;28;19963;-49
2022/04/28 13:07:59;;;;;;;;;;;;;;;;;;5076389;28;19916;-50
2022/04/28 13:10:26;;;;;;;;;;;;;;;;;;5075595;28;19908;-48
2022/04/28 13:12:52;;;;;;;;;;;;;;;;;;5056322;28;20305;-49
2022/04/28 13:15:19;;;;;;;;;;;;;;;;;;5055978;28;20371;-58
2022/04/28 13:17:45;;;;;;;;;;;;;;;;;;5055943;28;19908;-47
2022/04/28 13:20:12;;;;;;;;;;;;;;;;;;5056219;28;19909;-47
2022/04/28 13:22:38;;;;;;;;;;;;;;;;;;5065357;28;19916;-53
2022/04/28 13:25:05;;;;;;;;;;;;;;;;;;5075951;28;19954;-54
2022/04/28 13:27:31;;;;;;;;;;;;;;;;;;5075850;28;19923;-48
2022/04/28 13:29:58;;;;;;;;;;;;;;;;;;5076324;28;20378;-46
2022/04/28 13:32:24;;;;;;;;;;;;;;;;;;5076045;28;19954;-50
2022/04/28 13:34:51;;;;;;;;;;;;;;;;;;5076057;28;19915;-47
2022/04/28 13:37:17;;;;;;;;;;;;;;;;;;5075427;28;19974;-51
2022/04/28 13:39:44;;;;;;;;;;;;;;;;;;5076105;28;20266;-50
2022/04/28 13:42:11;;;;;;;;;;;;;;;;;;5075794;28;19905;-48
2022/04/28 13:44:37;;;;;;;;;;;;;;;;;;5075820;28;19908;-49
2022/04/28 13:47:04;;;;;;;;;;;;;;;;;;5075605;28;20007;-53
2022/04/28 13:49:31;;;;;;;;;;;;;;;;;;5075770;28;20363;-58
2022/04/28 13:51:57;;;;;;;;;;;;;;;;;;5074277;28;19912;-47
2022/04/28 13:54:24;;;;;;;;;;;;;;;;;;5075446;28;19916;-53
2022/04/28 13:56:50;;;;;;;;;;;;;;;;;;5075850;28;19909;-51
2022/04/28 13:59:17;;;;;;;;;;;;;;;;;;5075239;28;19915;-54
2022/04/28 14:01:43;;;;;;;;;;;;;;;;;;5075146;28;19956;-55
2022/04/28 14:04:09;;;;;;;;;;;;;;;;;;5075624;28;19915;-54
2022/04/28 14:06:36;;;;;;;;;;;;;;;;;;5075123;28;19921;-57
2022/04/28 14:09:02;;;;;;;;;;;;;;;;;;5075129;28;19908;-50
2022/04/28 14:11:29;;;;;;;;;;;;;;;;;;5074622;28;20322;-47
2022/04/28 14:13:56;;;;;;;;;;;;;;;;;;5075257;28;19909;-49
2022/04/28 14:16:22;;;;;;;;;;;;;;;;;;5075268;28;19908;-54
2022/04/28 14:18:49;;;;;;;;;;;;;;;;;;5075339;28;19909;-59
2022/04/28 14:21:15;;;;;;;;;;;;;;;;;;5074879;28;19931;-50
2022/04/28 14:23:42;;;;;;;;;;;;;;;;;;5075537;28;19916;-59
2022/04/28 14:26:09;;;;;;;;;;;;;;;;;;5074559;28;19950;-58
2022/04/28 14:28:35;;;;;;;;;;;;;;;;;;5074955;28;20375;-56
2022/04/28 14:31:02;;;;;;;;;;;;;;;;;;5074840;28;19908;-56
2022/04/28 14:33:29;;;;;;;;;;;;;;;;;;5075075;28;20016;-54
2022/04/28 14:35:55;;;;;;;;;;;;;;;;;;5074593;28;19912;-53
2022/04/28 14:38:22;;;;;;;;;;;;;;;;;;5075053;28;19910;-54
2022/04/28 14:40:49;;;;;;;;;;;;;;;;;;5074744;28;19915;-51
2022/04/28 14:43:15;;;;;;;;;;;;;;;;;;5065776;28;19915;-56
2022/04/28 14:45:43;;;;;;;;;;;;;;;;;;5054798;28;19963;-53
2022/04/28 14:48:11;;;;;;;;;;;;;;;;;;5054558;28;20376;-55
2022/04/28 14:53:22;;;;;;;;;;;;;;;;;;5054494;28;19916;-54
2022/04/28 14:55:50;;;;;;;;;;;;;;;;;;5054593;28;19909;-58
2022/04/28 14:58:18;;;;;;;;;;;;;;;;;;5074455;28;20481;-55
2022/04/28 15:00:44;;;;;;;;;;;;;;;;;;5074371;28;19915;-54
2022/04/28 15:03:11;;;;;;;;;;;;;;;;;;5073734;28;19908;-46
2022/04/28 15:05:38;;;;;;;;;;;;;;;;;;5074144;28;19977;-43
2022/04/28 15:08:04;;;;;;;;;;;;;;;;;;5074368;28;19920;-49
2022/04/28 15:10:31;;;;;;;;;;;;;;;;;;5073856;28;20046;-56
2022/04/28 15:12:57;;;;;;;;;;;;;;;;;;5074042;28;19916;-46
2022/04/28 15:15:25;;;;;;;;;;;;;;;;;;5073620;28;19915;-55
2022/04/28 15:17:52;;;;;;;;;;;;;;;;;;5074010;28;19913;-53
2022/04/28 15:20:18;;;;;;;;;;;;;;;;;;5074174;28;19904;-51
2022/04/28 15:22:45;;;;;;;;;;;;;;;;;;5073756;28;19913;-48
2022/04/28 15:25:11;;;;;;;;;;;;;;;;;;5072591;28;20346;-51
2022/04/28 15:27:38;;;;;;;;;;;;;;;;;;5073967;28;20385;-46
2022/04/28 15:30:06;;;;;;;;;;;;;;;;;;5073883;28;20359;-45
2022/04/28 15:32:32;;;;;;;;;;;;;;;;;;5073795;28;19912;-49
2022/04/28 15:34:58;;;;;;;;;;;;;;;;;;5073539;28;19962;-55
2022/04/28 15:37:25;;;;;;;;;;;;;;;;;;5073314;28;19947;-52
2022/04/28 15:39:51;;;;;;;;;;;;;;;;;;5073290;28;19944;-50
2022/04/28 15:42:19;;;;;;;;;;;;;;;;;;5073774;28;19951;-50
2022/04/28 15:44:45;;;;;;;;;;;;;;;;;;5073757;28;19908;-55
2022/04/28 15:47:12;;;;;;;;;;;;;;;;;;5073415;28;19924;-47
2022/04/28 15:49:38;;;;;;;;;;;;;;;;;;5073629;28;19909;-53
2022/04/28 15:52:04;;;;;;;;;;;;;;;;;;5073101;28;19941;-53
2022/04/28 15:54:31;;;;;;;;;;;;;;;;;;5073382;28;19909;-54
2022/04/28 15:56:57;;;;;;;;;;;;;;;;;;5073356;28;19912;-51
2022/04/28 15:59:25;;;;;;;;;;;;;;;;;;5073134;28;19955;-53
2022/04/28 16:01:51;;;;;;;;;;;;;;;;;;5073418;28;19913;-50
2022/04/28 16:04:18;;;;;;;;;;;;;;;;;;5073261;28;19916;-46
2022/04/28 16:06:44;;;;;;;;;;;;;;;;;;5073061;28;19924;-48
2022/04/28 16:09:11;;;;;;;;;;;;;;;;;;5071813;28;19908;-49
2022/04/28 16:11:38;;;;;;;;;;;;;;;;;;5073485;28;19934;-46
2022/04/28 16:14:04;;;;;;;;;;;;;;;;;;5073444;28;19944;-53
2022/04/28 16:16:31;;;;;;;;;;;;;;;;;;5073441;28;20248;-52
2022/04/28 16:18:58;;;;;;;;;;;;;;;;;;5073177;28;19909;-48
2022/04/28 16:21:24;;;;;;;;;;;;;;;;;;5073003;28;19961;-53
2022/04/28 16:23:50;;;;;;;;;;;;;;;;;;5073213;28;19908;-51
2022/04/28 16:26:18;;;;;;;;;;;;;;;;;;5072638;28;19949;-52
2022/04/28 16:28:45;;;;;;;;;;;;;;;;;;5073061;28;19920;-52
2022/04/28 16:31:11;;;;;;;;;;;;;;;;;;5072992;28;19909;-54
2022/04/28 16:33:38;;;;;;;;;;;;;;;;;;5072804;28;19908;-43
2022/04/28 16:36:04;;;;;;;;;;;;;;;;;;5076154;28;19928;-46
2022/04/28 16:38:32;;;;;;;;;;;;;;;;;;5077219;28;19915;-44
2022/04/28 16:40:59;;;;;;;;;;;;;;;;;;5077008;28;19915;-53
2022/04/28 16:43:25;;;;;;;;;;;;;;;;;;5076240;28;19916;-52
2022/04/28 16:45:52;;;;;;;;;;;;;;;;;;5077304;28;19913;-46
2022/04/28 16:48:18;;;;;;;;;;;;;;;;;;5076876;28;19917;-54
2022/04/28 16:50:45;;;;;;;;;;;;;;;;;;5076875;28;20011;-54
2022/04/28 16:53:11;;;;;;;;;;;;;;;;;;5076602;28;20323;-55
2022/04/28 16:55:38;;;;;;;;;;;;;;;;;;5076638;28;20421;-54
2022/04/28 16:58:06;;;;;;;;;;;;;;;;;;5076692;28;20294;-54
2022/04/28 17:00:32;;;;;;;;;;;;;;;;;;5076790;28;19931;-47
2022/04/28 17:05:43;;;;;;;;;;;;;;;;;;5076701;28;19932;-53
2022/04/28 17:08:10;;;;;;;;;;;;;;;;;;5076219;28;19923;-53
2022/04/28 17:10:36;;;;;;;;;;;;;;;;;;5076341;28;19979;-55
2022/04/28 17:13:03;;;;;;;;;;;;;;;;;;5076442;28;19908;-42
2022/04/28 17:15:29;;;;;;;;;;;;;;;;;;5076289;28;19908;-52
2022/04/28 17:17:56;;;;;;;;;;;;;;;;;;5076546;28;19908;-55
2022/04/28 17:20:22;;;;;;;;;;;;;;;;;;5076502;28;20024;-52
2022/04/28 17:22:50;;;;;;;;;;;;;;;;;;5075937;28;19962;-53
2022/04/28 17:25:16;;;;;;;;;;;;;;;;;;5075819;28;19931;-53
2022/04/28 17:27:43;;;;;;;;;;;;;;;;;;5075788;28;19916;-55
2022/04/28 17:30:11;;;;;;;;;;;;;;;;;;5076333;28;19909;-55
2022/04/28 17:32:37;;;;;;;;;;;;;;;;;;5076092;28;20278;-52
2022/04/28 17:35:04;;;;;;;;;;;;;;;;;;5075851;28;20252;-53
2022/04/28 17:37:30;;;;;;;;;;;;;;;;;;5075740;28;19909;-54
2022/04/28 17:39:57;;;;;;;;;;;;;;;;;;5075853;28;19908;-57
2022/04/28 17:42:23;;;;;;;;;;;;;;;;;;5075828;28;19982;-53